Orlando, Florida
Traffic Map
Current Weather Conditions
Orlando, Florida
Scattered Clouds
Scattered Clouds
82°
Feels Like: 84°
Wind Chill: 82° Ceiling: Unl
Heat Index: 84° Visibility: 10mi
Dew Point: 66° Wind: 7mph
Humidity: 58% Direction: 10° (N)
Pressure: 30.07in Gusts: 0mph
Raw Report DataKORL 061610Z 01006KT 10SM FEW031 SCT047 28/19 A3007 RMK AO2 T02780189
Traffic Incident Summary
Active as of:
Severity:
Category:
InformationThere was an issue retrieving the traffic information for this location. Please try a different location or try again shortly.
Advertisements
Track Severe Weather on mobile